sensor_id;sensor_type;location;lat;lon;timestamp;P1;durP1;ratioP1;P2;durP2;ratioP2
2860;SDS011;1438;50.922;6.704;2023-02-08T00:01:19;11.88;;;7.07;;
2860;SDS011;1438;50.922;6.704;2023-02-08T00:03:46;11.55;;;6.70;;
2860;SDS011;1438;50.922;6.704;2023-02-08T00:06:12;11.30;;;6.72;;
2860;SDS011;1438;50.922;6.704;2023-02-08T00:08:39;9.32;;;6.70;;
2860;SDS011;1438;50.922;6.704;2023-02-08T00:11:05;12.90;;;7.90;;
2860;SDS011;1438;50.922;6.704;2023-02-08T00:13:34;14.80;;;7.75;;
2860;SDS011;1438;50.922;6.704;2023-02-08T00:16:00;11.07;;;7.45;;
2860;SDS011;1438;50.922;6.704;2023-02-08T00:18:26;9.10;;;6.75;;
2860;SDS011;1438;50.922;6.704;2023-02-08T00:20:52;14.32;;;7.53;;
2860;SDS011;1438;50.922;6.704;2023-02-08T00:23:19;14.50;;;8.20;;
2860;SDS011;1438;50.922;6.704;2023-02-08T00:25:45;14.27;;;8.27;;
2860;SDS011;1438;50.922;6.704;2023-02-08T00:28:12;12.93;;;7.38;;
2860;SDS011;1438;50.922;6.704;2023-02-08T00:30:39;13.18;;;8.43;;
2860;SDS011;1438;50.922;6.704;2023-02-08T00:33:05;12.05;;;8.20;;
2860;SDS011;1438;50.922;6.704;2023-02-08T00:35:31;13.27;;;8.40;;
2860;SDS011;1438;50.922;6.704;2023-02-08T00:37:57;12.48;;;8.68;;
2860;SDS011;1438;50.922;6.704;2023-02-08T00:40:24;13.35;;;9.20;;
2860;SDS011;1438;50.922;6.704;2023-02-08T00:42:50;18.65;;;10.32;;
2860;SDS011;1438;50.922;6.704;2023-02-08T00:45:16;14.43;;;9.10;;
2860;SDS011;1438;50.922;6.704;2023-02-08T00:47:42;14.18;;;9.55;;
2860;SDS011;1438;50.922;6.704;2023-02-08T00:50:09;14.88;;;9.70;;
2860;SDS011;1438;50.922;6.704;2023-02-08T00:52:35;13.23;;;9.10;;
2860;SDS011;1438;50.922;6.704;2023-02-08T00:55:01;16.63;;;8.98;;
2860;SDS011;1438;50.922;6.704;2023-02-08T00:57:27;12.15;;;8.90;;
2860;SDS011;1438;50.922;6.704;2023-02-08T00:59:53;14.60;;;9.02;;
2860;SDS011;1438;50.922;6.704;2023-02-08T01:02:19;17.60;;;9.93;;
2860;SDS011;1438;50.922;6.704;2023-02-08T01:04:45;16.23;;;10.50;;
2860;SDS011;1438;50.922;6.704;2023-02-08T01:07:11;13.80;;;9.10;;
2860;SDS011;1438;50.922;6.704;2023-02-08T01:09:37;18.08;;;9.88;;
2860;SDS011;1438;50.922;6.704;2023-02-08T01:12:03;16.42;;;9.32;;
2860;SDS011;1438;50.922;6.704;2023-02-08T01:14:29;16.98;;;10.20;;
2860;SDS011;1438;50.922;6.704;2023-02-08T01:16:55;14.50;;;9.23;;
2860;SDS011;1438;50.922;6.704;2023-02-08T01:19:21;16.20;;;9.88;;
2860;SDS011;1438;50.922;6.704;2023-02-08T01:21:47;13.48;;;8.82;;
2860;SDS011;1438;50.922;6.704;2023-02-08T01:24:13;20.70;;;9.63;;
2860;SDS011;1438;50.922;6.704;2023-02-08T01:26:40;11.52;;;9.25;;
2860;SDS011;1438;50.922;6.704;2023-02-08T01:29:06;12.27;;;9.23;;
2860;SDS011;1438;50.922;6.704;2023-02-08T01:31:36;11.95;;;8.65;;
2860;SDS011;1438;50.922;6.704;2023-02-08T01:34:02;14.88;;;9.90;;
2860;SDS011;1438;50.922;6.704;2023-02-08T01:36:29;18.83;;;9.82;;
2860;SDS011;1438;50.922;6.704;2023-02-08T01:38:55;16.35;;;11.07;;
2860;SDS011;1438;50.922;6.704;2023-02-08T01:41:22;14.73;;;9.27;;
2860;SDS011;1438;50.922;6.704;2023-02-08T01:46:51;12.57;;;9.30;;
2860;SDS011;1438;50.922;6.704;2023-02-08T01:49:19;18.35;;;10.45;;
2860;SDS011;1438;50.922;6.704;2023-02-08T01:51:47;16.85;;;9.10;;
2860;SDS011;1438;50.922;6.704;2023-02-08T01:54:15;15.68;;;9.45;;
2860;SDS011;1438;50.922;6.704;2023-02-08T01:56:43;15.25;;;9.15;;
2860;SDS011;1438;50.922;6.704;2023-02-08T01:59:17;17.33;;;8.52;;
2860;SDS011;1438;50.922;6.704;2023-02-08T02:01:45;15.73;;;9.75;;
2860;SDS011;1438;50.922;6.704;2023-02-08T02:04:11;19.50;;;10.65;;
2860;SDS011;1438;50.922;6.704;2023-02-08T02:06:39;15.32;;;9.13;;
2860;SDS011;1438;50.922;6.704;2023-02-08T02:11:52;18.73;;;9.85;;
2860;SDS011;1438;50.922;6.704;2023-02-08T02:14:18;16.10;;;9.98;;
2860;SDS011;1438;50.922;6.704;2023-02-08T02:16:44;16.67;;;9.23;;
2860;SDS011;1438;50.922;6.704;2023-02-08T02:19:13;15.00;;;9.90;;
2860;SDS011;1438;50.922;6.704;2023-02-08T02:21:45;14.25;;;9.18;;
2860;SDS011;1438;50.922;6.704;2023-02-08T02:24:28;19.38;;;10.68;;
2860;SDS011;1438;50.922;6.704;2023-02-08T02:32:06;20.10;;;10.88;;
2860;SDS011;1438;50.922;6.704;2023-02-08T02:34:49;16.85;;;10.35;;
2860;SDS011;1438;50.922;6.704;2023-02-08T02:42:50;15.43;;;10.15;;
2860;SDS011;1438;50.922;6.704;2023-02-08T02:45:39;16.08;;;10.05;;
2860;SDS011;1438;50.922;6.704;2023-02-08T02:50:44;16.02;;;10.00;;
2860;SDS011;1438;50.922;6.704;2023-02-08T02:53:20;17.17;;;10.57;;
2860;SDS011;1438;50.922;6.704;2023-02-08T02:55:48;18.73;;;11.10;;
2860;SDS011;1438;50.922;6.704;2023-02-08T02:58:16;16.45;;;11.40;;
2860;SDS011;1438;50.922;6.704;2023-02-08T03:00:44;15.30;;;10.32;;
2860;SDS011;1438;50.922;6.704;2023-02-08T03:03:17;17.02;;;10.48;;
2860;SDS011;1438;50.922;6.704;2023-02-08T03:05:45;15.15;;;10.00;;
2860;SDS011;1438;50.922;6.704;2023-02-08T03:11:19;21.90;;;9.43;;
2860;SDS011;1438;50.922;6.704;2023-02-08T03:13:55;12.27;;;8.57;;
2860;SDS011;1438;50.922;6.704;2023-02-08T03:16:31;14.50;;;10.45;;
2860;SDS011;1438;50.922;6.704;2023-02-08T03:21:40;17.70;;;10.73;;
2860;SDS011;1438;50.922;6.704;2023-02-08T03:31:45;17.30;;;9.95;;
2860;SDS011;1438;50.922;6.704;2023-02-08T03:37:10;16.52;;;10.23;;
2860;SDS011;1438;50.922;6.704;2023-02-08T03:39:38;17.17;;;10.20;;
2860;SDS011;1438;50.922;6.704;2023-02-08T03:42:08;16.77;;;11.38;;
2860;SDS011;1438;50.922;6.704;2023-02-08T03:44:36;17.33;;;11.20;;
2860;SDS011;1438;50.922;6.704;2023-02-08T03:47:37;17.48;;;10.63;;
2860;SDS011;1438;50.922;6.704;2023-02-08T03:49:56;17.65;;;10.27;;
2860;SDS011;1438;50.922;6.704;2023-02-08T03:52:23;17.30;;;11.35;;
2860;SDS011;1438;50.922;6.704;2023-02-08T03:54:57;18.13;;;10.75;;
2860;SDS011;1438;50.922;6.704;2023-02-08T03:57:26;18.33;;;11.43;;
2860;SDS011;1438;50.922;6.704;2023-02-08T03:59:55;17.10;;;10.10;;
2860;SDS011;1438;50.922;6.704;2023-02-08T04:02:22;17.58;;;10.73;;
2860;SDS011;1438;50.922;6.704;2023-02-08T04:04:50;16.13;;;10.38;;
2860;SDS011;1438;50.922;6.704;2023-02-08T04:07:17;16.70;;;10.68;;
2860;SDS011;1438;50.922;6.704;2023-02-08T04:09:43;19.67;;;11.52;;
2860;SDS011;1438;50.922;6.704;2023-02-08T04:12:10;18.10;;;10.00;;
2860;SDS011;1438;50.922;6.704;2023-02-08T04:14:36;15.48;;;11.02;;
2860;SDS011;1438;50.922;6.704;2023-02-08T04:17:02;17.85;;;11.98;;
2860;SDS011;1438;50.922;6.704;2023-02-08T04:19:28;19.27;;;10.70;;
2860;SDS011;1438;50.922;6.704;2023-02-08T04:21:54;20.30;;;11.38;;
2860;SDS011;1438;50.922;6.704;2023-02-08T04:24:20;14.15;;;10.70;;
2860;SDS011;1438;50.922;6.704;2023-02-08T04:26:46;17.67;;;10.95;;
2860;SDS011;1438;50.922;6.704;2023-02-08T04:29:12;16.23;;;10.30;;
2860;SDS011;1438;50.922;6.704;2023-02-08T04:31:38;13.70;;;10.38;;
2860;SDS011;1438;50.922;6.704;2023-02-08T04:34:04;18.45;;;10.05;;
2860;SDS011;1438;50.922;6.704;2023-02-08T04:36:31;18.58;;;10.32;;
2860;SDS011;1438;50.922;6.704;2023-02-08T04:38:57;18.13;;;11.55;;
2860;SDS011;1438;50.922;6.704;2023-02-08T04:41:23;14.55;;;10.32;;
2860;SDS011;1438;50.922;6.704;2023-02-08T04:43:49;15.05;;;9.82;;
2860;SDS011;1438;50.922;6.704;2023-02-08T04:46:15;15.10;;;9.70;;
2860;SDS011;1438;50.922;6.704;2023-02-08T04:48:41;15.68;;;10.90;;
2860;SDS011;1438;50.922;6.704;2023-02-08T04:51:07;21.02;;;10.35;;
2860;SDS011;1438;50.922;6.704;2023-02-08T04:53:33;18.10;;;10.70;;
2860;SDS011;1438;50.922;6.704;2023-02-08T04:55:59;21.13;;;11.50;;
2860;SDS011;1438;50.922;6.704;2023-02-08T04:58:25;16.00;;;10.85;;
2860;SDS011;1438;50.922;6.704;2023-02-08T05:00:51;15.23;;;9.27;;
2860;SDS011;1438;50.922;6.704;2023-02-08T05:03:17;16.15;;;9.35;;
2860;SDS011;1438;50.922;6.704;2023-02-08T05:05:43;21.70;;;11.48;;
2860;SDS011;1438;50.922;6.704;2023-02-08T05:08:09;20.98;;;10.68;;
2860;SDS011;1438;50.922;6.704;2023-02-08T05:10:35;17.48;;;10.45;;
2860;SDS011;1438;50.922;6.704;2023-02-08T05:13:01;19.42;;;11.23;;
2860;SDS011;1438;50.922;6.704;2023-02-08T05:15:27;20.42;;;10.65;;
2860;SDS011;1438;50.922;6.704;2023-02-08T05:17:53;21.05;;;11.95;;
2860;SDS011;1438;50.922;6.704;2023-02-08T05:20:19;18.23;;;10.27;;
2860;SDS011;1438;50.922;6.704;2023-02-08T05:22:45;21.75;;;10.70;;
2860;SDS011;1438;50.922;6.704;2023-02-08T05:25:11;18.80;;;10.40;;
2860;SDS011;1438;50.922;6.704;2023-02-08T05:27:37;19.70;;;10.90;;
2860;SDS011;1438;50.922;6.704;2023-02-08T05:30:03;15.05;;;9.25;;
2860;SDS011;1438;50.922;6.704;2023-02-08T05:32:30;18.88;;;10.80;;
2860;SDS011;1438;50.922;6.704;2023-02-08T05:34:56;16.83;;;10.10;;
2860;SDS011;1438;50.922;6.704;2023-02-08T05:37:22;18.02;;;10.10;;
2860;SDS011;1438;50.922;6.704;2023-02-08T05:39:48;18.20;;;11.18;;
2860;SDS011;1438;50.922;6.704;2023-02-08T05:42:14;16.70;;;11.38;;
2860;SDS011;1438;50.922;6.704;2023-02-08T05:44:40;18.73;;;11.93;;
2860;SDS011;1438;50.922;6.704;2023-02-08T05:47:06;18.05;;;11.18;;
2860;SDS011;1438;50.922;6.704;2023-02-08T05:49:32;26.40;;;11.65;;
2860;SDS011;1438;50.922;6.704;2023-02-08T05:51:58;18.73;;;10.90;;
2860;SDS011;1438;50.922;6.704;2023-02-08T05:54:24;22.17;;;11.68;;
2860;SDS011;1438;50.922;6.704;2023-02-08T05:56:50;21.00;;;11.95;;
2860;SDS011;1438;50.922;6.704;2023-02-08T05:59:16;25.45;;;12.10;;
2860;SDS011;1438;50.922;6.704;2023-02-08T06:01:42;22.80;;;12.63;;
2860;SDS011;1438;50.922;6.704;2023-02-08T06:04:08;17.77;;;11.73;;
2860;SDS011;1438;50.922;6.704;2023-02-08T06:06:34;19.55;;;12.30;;
2860;SDS011;1438;50.922;6.704;2023-02-08T06:09:00;21.23;;;12.00;;
2860;SDS011;1438;50.922;6.704;2023-02-08T06:11:26;20.55;;;11.55;;
2860;SDS011;1438;50.922;6.704;2023-02-08T06:13:52;19.80;;;11.82;;
2860;SDS011;1438;50.922;6.704;2023-02-08T06:16:18;19.48;;;12.15;;
2860;SDS011;1438;50.922;6.704;2023-02-08T06:18:44;20.77;;;12.00;;
2860;SDS011;1438;50.922;6.704;2023-02-08T06:21:10;19.27;;;12.27;;
2860;SDS011;1438;50.922;6.704;2023-02-08T06:23:36;22.92;;;11.65;;
2860;SDS011;1438;50.922;6.704;2023-02-08T06:26:03;15.18;;;10.40;;
2860;SDS011;1438;50.922;6.704;2023-02-08T06:28:29;20.80;;;12.70;;
2860;SDS011;1438;50.922;6.704;2023-02-08T06:30:55;21.60;;;12.02;;
2860;SDS011;1438;50.922;6.704;2023-02-08T06:33:21;22.10;;;12.00;;
2860;SDS011;1438;50.922;6.704;2023-02-08T06:35:49;19.30;;;11.15;;
2860;SDS011;1438;50.922;6.704;2023-02-08T06:38:16;19.48;;;11.05;;
2860;SDS011;1438;50.922;6.704;2023-02-08T06:40:42;17.95;;;11.10;;
2860;SDS011;1438;50.922;6.704;2023-02-08T06:43:09;19.10;;;10.63;;
2860;SDS011;1438;50.922;6.704;2023-02-08T06:45:35;17.27;;;10.32;;
2860;SDS011;1438;50.922;6.704;2023-02-08T06:48:01;20.52;;;11.95;;
2860;SDS011;1438;50.922;6.704;2023-02-08T06:50:27;14.00;;;11.13;;
2860;SDS011;1438;50.922;6.704;2023-02-08T06:52:53;19.77;;;11.10;;
2860;SDS011;1438;50.922;6.704;2023-02-08T06:55:19;18.67;;;11.43;;
2860;SDS011;1438;50.922;6.704;2023-02-08T06:57:45;16.83;;;10.50;;
2860;SDS011;1438;50.922;6.704;2023-02-08T07:00:11;23.02;;;11.40;;
2860;SDS011;1438;50.922;6.704;2023-02-08T07:02:37;16.38;;;10.48;;
2860;SDS011;1438;50.922;6.704;2023-02-08T07:05:03;15.93;;;10.93;;
2860;SDS011;1438;50.922;6.704;2023-02-08T07:07:29;17.10;;;10.20;;
2860;SDS011;1438;50.922;6.704;2023-02-08T07:09:55;19.15;;;10.80;;
2860;SDS011;1438;50.922;6.704;2023-02-08T07:12:21;19.17;;;11.02;;
2860;SDS011;1438;50.922;6.704;2023-02-08T07:14:47;17.35;;;11.55;;
2860;SDS011;1438;50.922;6.704;2023-02-08T07:17:14;19.17;;;10.75;;
2860;SDS011;1438;50.922;6.704;2023-02-08T07:19:40;17.35;;;11.05;;
2860;SDS011;1438;50.922;6.704;2023-02-08T07:22:06;27.20;;;11.80;;
2860;SDS011;1438;50.922;6.704;2023-02-08T07:24:41;17.25;;;11.80;;
2860;SDS011;1438;50.922;6.704;2023-02-08T07:27:08;21.20;;;10.70;;
2860;SDS011;1438;50.922;6.704;2023-02-08T07:29:34;23.05;;;12.13;;
2860;SDS011;1438;50.922;6.704;2023-02-08T07:32:00;19.13;;;11.65;;
2860;SDS011;1438;50.922;6.704;2023-02-08T07:34:27;19.42;;;11.43;;
2860;SDS011;1438;50.922;6.704;2023-02-08T07:36:54;16.25;;;11.10;;
2860;SDS011;1438;50.922;6.704;2023-02-08T07:39:20;16.98;;;10.68;;
2860;SDS011;1438;50.922;6.704;2023-02-08T07:41:46;23.60;;;13.20;;
2860;SDS011;1438;50.922;6.704;2023-02-08T07:44:12;22.88;;;11.77;;
2860;SDS011;1438;50.922;6.704;2023-02-08T07:46:39;21.58;;;12.10;;
2860;SDS011;1438;50.922;6.704;2023-02-08T07:49:05;18.90;;;12.45;;
2860;SDS011;1438;50.922;6.704;2023-02-08T07:51:31;15.95;;;11.10;;
2860;SDS011;1438;50.922;6.704;2023-02-08T07:53:57;19.83;;;11.60;;
2860;SDS011;1438;50.922;6.704;2023-02-08T07:56:23;25.60;;;13.43;;
2860;SDS011;1438;50.922;6.704;2023-02-08T07:58:49;19.30;;;12.30;;
2860;SDS011;1438;50.922;6.704;2023-02-08T08:01:15;18.67;;;12.80;;
2860;SDS011;1438;50.922;6.704;2023-02-08T08:03:41;22.75;;;12.32;;
2860;SDS011;1438;50.922;6.704;2023-02-08T08:06:07;27.75;;;12.52;;
2860;SDS011;1438;50.922;6.704;2023-02-08T08:08:33;19.83;;;12.13;;
2860;SDS011;1438;50.922;6.704;2023-02-08T08:11:00;19.30;;;12.15;;
2860;SDS011;1438;50.922;6.704;2023-02-08T08:13:26;18.17;;;12.68;;
2860;SDS011;1438;50.922;6.704;2023-02-08T08:15:52;19.92;;;12.38;;
2860;SDS011;1438;50.922;6.704;2023-02-08T08:18:18;15.75;;;10.98;;
2860;SDS011;1438;50.922;6.704;2023-02-08T08:20:44;27.30;;;13.05;;
2860;SDS011;1438;50.922;6.704;2023-02-08T08:23:10;19.98;;;11.48;;
2860;SDS011;1438;50.922;6.704;2023-02-08T08:25:36;21.08;;;11.68;;
2860;SDS011;1438;50.922;6.704;2023-02-08T08:28:02;17.75;;;11.65;;
2860;SDS011;1438;50.922;6.704;2023-02-08T08:30:29;28.38;;;10.82;;
2860;SDS011;1438;50.922;6.704;2023-02-08T08:32:55;16.65;;;10.40;;
2860;SDS011;1438;50.922;6.704;2023-02-08T08:35:21;15.27;;;9.63;;
2860;SDS011;1438;50.922;6.704;2023-02-08T08:37:47;24.25;;;12.18;;
2860;SDS011;1438;50.922;6.704;2023-02-08T08:40:13;16.35;;;10.70;;
2860;SDS011;1438;50.922;6.704;2023-02-08T08:42:39;17.23;;;10.65;;
2860;SDS011;1438;50.922;6.704;2023-02-08T08:45:06;25.08;;;11.02;;
2860;SDS011;1438;50.922;6.704;2023-02-08T08:47:32;16.98;;;10.13;;
2860;SDS011;1438;50.922;6.704;2023-02-08T08:49:59;17.15;;;10.10;;
2860;SDS011;1438;50.922;6.704;2023-02-08T08:52:25;22.15;;;13.75;;
2860;SDS011;1438;50.922;6.704;2023-02-08T08:54:51;17.98;;;10.52;;
2860;SDS011;1438;50.922;6.704;2023-02-08T08:57:17;17.13;;;9.10;;
2860;SDS011;1438;50.922;6.704;2023-02-08T08:59:43;18.77;;;11.10;;
2860;SDS011;1438;50.922;6.704;2023-02-08T09:02:12;12.55;;;7.88;;
2860;SDS011;1438;50.922;6.704;2023-02-08T09:04:39;21.83;;;11.07;;
2860;SDS011;1438;50.922;6.704;2023-02-08T09:07:05;18.40;;;10.05;;
2860;SDS011;1438;50.922;6.704;2023-02-08T09:09:32;16.33;;;10.00;;
2860;SDS011;1438;50.922;6.704;2023-02-08T09:11:58;25.77;;;10.48;;
2860;SDS011;1438;50.922;6.704;2023-02-08T09:14:24;14.40;;;9.10;;
2860;SDS011;1438;50.922;6.704;2023-02-08T09:16:50;14.38;;;8.55;;
2860;SDS011;1438;50.922;6.704;2023-02-08T09:19:17;13.38;;;9.27;;
2860;SDS011;1438;50.922;6.704;2023-02-08T09:21:43;16.60;;;9.30;;
2860;SDS011;1438;50.922;6.704;2023-02-08T09:24:09;29.73;;;10.88;;
2860;SDS011;1438;50.922;6.704;2023-02-08T09:26:35;15.45;;;8.48;;
2860;SDS011;1438;50.922;6.704;2023-02-08T09:29:01;15.45;;;9.30;;
2860;SDS011;1438;50.922;6.704;2023-02-08T09:31:29;15.77;;;9.30;;
2860;SDS011;1438;50.922;6.704;2023-02-08T09:33:56;15.18;;;9.77;;
2860;SDS011;1438;50.922;6.704;2023-02-08T09:36:23;15.48;;;8.75;;
2860;SDS011;1438;50.922;6.704;2023-02-08T09:38:53;13.75;;;9.57;;
2860;SDS011;1438;50.922;6.704;2023-02-08T09:46:32;12.68;;;8.50;;
2860;SDS011;1438;50.922;6.704;2023-02-08T09:49:02;15.57;;;9.35;;
2860;SDS011;1438;50.922;6.704;2023-02-08T09:51:42;13.65;;;8.75;;
2860;SDS011;1438;50.922;6.704;2023-02-08T09:54:15;12.95;;;8.20;;
2860;SDS011;1438;50.922;6.704;2023-02-08T09:56:43;11.35;;;8.82;;
2860;SDS011;1438;50.922;6.704;2023-02-08T09:59:12;16.58;;;9.63;;
2860;SDS011;1438;50.922;6.704;2023-02-08T10:01:39;16.95;;;8.30;;
2860;SDS011;1438;50.922;6.704;2023-02-08T10:04:23;13.05;;;8.50;;
2860;SDS011;1438;50.922;6.704;2023-02-08T10:06:50;11.65;;;7.32;;
2860;SDS011;1438;50.922;6.704;2023-02-08T10:09:17;14.40;;;8.52;;
2860;SDS011;1438;50.922;6.704;2023-02-08T10:11:51;17.10;;;8.68;;
2860;SDS011;1438;50.922;6.704;2023-02-08T10:16:49;13.18;;;8.68;;
2860;SDS011;1438;50.922;6.704;2023-02-08T10:19:26;14.15;;;8.60;;
2860;SDS011;1438;50.922;6.704;2023-02-08T10:22:01;12.70;;;7.40;;
2860;SDS011;1438;50.922;6.704;2023-02-08T10:27:39;17.42;;;8.02;;
2860;SDS011;1438;50.922;6.704;2023-02-08T10:35:04;13.73;;;8.20;;
2860;SDS011;1438;50.922;6.704;2023-02-08T10:37:32;14.77;;;8.43;;
2860;SDS011;1438;50.922;6.704;2023-02-08T10:40:18;10.88;;;8.13;;
2860;SDS011;1438;50.922;6.704;2023-02-08T10:42:50;11.80;;;8.30;;
2860;SDS011;1438;50.922;6.704;2023-02-08T10:45:21;14.52;;;8.82;;
2860;SDS011;1438;50.922;6.704;2023-02-08T10:47:51;11.50;;;7.50;;
2860;SDS011;1438;50.922;6.704;2023-02-08T10:50:21;10.47;;;7.77;;
2860;SDS011;1438;50.922;6.704;2023-02-08T10:52:47;11.38;;;8.15;;
2860;SDS011;1438;50.922;6.704;2023-02-08T10:55:14;11.13;;;7.30;;
2860;SDS011;1438;50.922;6.704;2023-02-08T10:57:41;10.00;;;8.20;;
2860;SDS011;1438;50.922;6.704;2023-02-08T11:02:43;11.33;;;7.27;;
2860;SDS011;1438;50.922;6.704;2023-02-08T11:05:12;11.67;;;7.70;;
2860;SDS011;1438;50.922;6.704;2023-02-08T11:07:39;11.07;;;7.40;;
2860;SDS011;1438;50.922;6.704;2023-02-08T11:13:44;8.60;;;6.90;;
2860;SDS011;1438;50.922;6.704;2023-02-08T11:15:43;9.20;;;6.90;;
2860;SDS011;1438;50.922;6.704;2023-02-08T11:21:06;9.90;;;7.10;;
2860;SDS011;1438;50.922;6.704;2023-02-08T11:23:38;9.00;;;6.13;;
2860;SDS011;1438;50.922;6.704;2023-02-08T11:28:43;11.63;;;7.10;;
2860;SDS011;1438;50.922;6.704;2023-02-08T11:31:17;7.67;;;5.87;;
2860;SDS011;1438;50.922;6.704;2023-02-08T11:34:04;15.90;;;6.10;;
2860;SDS011;1438;50.922;6.704;2023-02-08T11:36:30;10.97;;;7.57;;
2860;SDS011;1438;50.922;6.704;2023-02-08T11:38:56;12.97;;;7.30;;
2860;SDS011;1438;50.922;6.704;2023-02-08T11:41:25;14.40;;;6.70;;
2860;SDS011;1438;50.922;6.704;2023-02-08T11:44:01;8.23;;;5.70;;
2860;SDS011;1438;50.922;6.704;2023-02-08T11:46:28;11.47;;;7.50;;
2860;SDS011;1438;50.922;6.704;2023-02-08T11:48:55;11.20;;;6.03;;
2860;SDS011;1438;50.922;6.704;2023-02-08T11:51:26;8.80;;;6.00;;
2860;SDS011;1438;50.922;6.704;2023-02-08T11:53:52;8.57;;;5.63;;
2860;SDS011;1438;50.922;6.704;2023-02-08T11:56:22;11.17;;;6.50;;
2860;SDS011;1438;50.922;6.704;2023-02-08T11:58:59;9.63;;;5.97;;
2860;SDS011;1438;50.922;6.704;2023-02-08T12:01:36;8.43;;;5.97;;
2860;SDS011;1438;50.922;6.704;2023-02-08T12:04:03;9.37;;;5.60;;
2860;SDS011;1438;50.922;6.704;2023-02-08T12:21:46;8.00;;;5.17;;
2860;SDS011;1438;50.922;6.704;2023-02-08T12:31:47;8.50;;;6.03;;
2860;SDS011;1438;50.922;6.704;2023-02-08T12:34:21;8.20;;;4.00;;
2860;SDS011;1438;50.922;6.704;2023-02-08T12:39:55;8.50;;;6.00;;
2860;SDS011;1438;50.922;6.704;2023-02-08T12:42:47;6.83;;;4.70;;
2860;SDS011;1438;50.922;6.704;2023-02-08T12:45:49;5.90;;;4.30;;
2860;SDS011;1438;50.922;6.704;2023-02-08T12:50:35;4.13;;;3.40;;
2860;SDS011;1438;50.922;6.704;2023-02-08T12:53:12;6.70;;;4.57;;
2860;SDS011;1438;50.922;6.704;2023-02-08T12:55:39;6.20;;;5.30;;
2860;SDS011;1438;50.922;6.704;2023-02-08T12:58:18;5.13;;;4.23;;
2860;SDS011;1438;50.922;6.704;2023-02-08T13:00:46;5.13;;;3.70;;
2860;SDS011;1438;50.922;6.704;2023-02-08T13:03:29;5.17;;;4.27;;
2860;SDS011;1438;50.922;6.704;2023-02-08T13:05:56;7.67;;;4.80;;
2860;SDS011;1438;50.922;6.704;2023-02-08T13:10:56;6.30;;;3.93;;
2860;SDS011;1438;50.922;6.704;2023-02-08T13:13:44;5.40;;;4.43;;
2860;SDS011;1438;50.922;6.704;2023-02-08T13:16:12;5.90;;;4.17;;
2860;SDS011;1438;50.922;6.704;2023-02-08T13:18:45;6.03;;;3.70;;
2860;SDS011;1438;50.922;6.704;2023-02-08T13:21:18;6.30;;;5.10;;
2860;SDS011;1438;50.922;6.704;2023-02-08T13:23:45;11.20;;;4.97;;
2860;SDS011;1438;50.922;6.704;2023-02-08T13:26:21;6.73;;;4.63;;
2860;SDS011;1438;50.922;6.704;2023-02-08T13:28:51;5.03;;;3.90;;
2860;SDS011;1438;50.922;6.704;2023-02-08T13:31:22;9.50;;;4.80;;
2860;SDS011;1438;50.922;6.704;2023-02-08T13:33:58;6.50;;;4.33;;
2860;SDS011;1438;50.922;6.704;2023-02-08T13:36:27;6.77;;;4.60;;
2860;SDS011;1438;50.922;6.704;2023-02-08T13:38:55;8.53;;;5.10;;
2860;SDS011;1438;50.922;6.704;2023-02-08T13:41:23;5.80;;;4.30;;
2860;SDS011;1438;50.922;6.704;2023-02-08T13:46:16;5.53;;;4.23;;
2860;SDS011;1438;50.922;6.704;2023-02-08T13:49:01;6.50;;;4.10;;
2860;SDS011;1438;50.922;6.704;2023-02-08T13:56:38;13.13;;;4.87;;
2860;SDS011;1438;50.922;6.704;2023-02-08T14:04:36;5.33;;;4.07;;
2860;SDS011;1438;50.922;6.704;2023-02-08T14:07:03;5.37;;;4.43;;
2860;SDS011;1438;50.922;6.704;2023-02-08T14:12:19;7.27;;;4.00;;
2860;SDS011;1438;50.922;6.704;2023-02-08T14:15:03;7.43;;;4.37;;
2860;SDS011;1438;50.922;6.704;2023-02-08T14:17:29;7.50;;;4.83;;
2860;SDS011;1438;50.922;6.704;2023-02-08T14:19:56;5.13;;;4.40;;
2860;SDS011;1438;50.922;6.704;2023-02-08T14:22:23;10.73;;;4.30;;
2860;SDS011;1438;50.922;6.704;2023-02-08T14:25:04;4.60;;;4.10;;
2860;SDS011;1438;50.922;6.704;2023-02-08T14:27:40;5.60;;;4.20;;
2860;SDS011;1438;50.922;6.704;2023-02-08T14:32:36;6.50;;;4.00;;
2860;SDS011;1438;50.922;6.704;2023-02-08T14:35:07;5.93;;;4.10;;
2860;SDS011;1438;50.922;6.704;2023-02-08T14:37:34;6.43;;;4.10;;
2860;SDS011;1438;50.922;6.704;2023-02-08T14:42:53;6.70;;;4.20;;
2860;SDS011;1438;50.922;6.704;2023-02-08T14:45:32;6.50;;;4.10;;
2860;SDS011;1438;50.922;6.704;2023-02-08T14:50:49;4.60;;;3.70;;
2860;SDS011;1438;50.922;6.704;2023-02-08T14:53:59;5.77;;;4.10;;
2860;SDS011;1438;50.922;6.704;2023-02-08T14:56:15;5.50;;;4.33;;
2860;SDS011;1438;50.922;6.704;2023-02-08T14:58:44;5.03;;;3.90;;
2860;SDS011;1438;50.922;6.704;2023-02-08T15:01:12;6.10;;;4.00;;
2860;SDS011;1438;50.922;6.704;2023-02-08T15:03:39;4.17;;;3.57;;
2860;SDS011;1438;50.922;6.704;2023-02-08T15:08:51;5.73;;;4.10;;
2860;SDS011;1438;50.922;6.704;2023-02-08T15:11:25;6.73;;;4.43;;
2860;SDS011;1438;50.922;6.704;2023-02-08T15:13:53;5.67;;;4.30;;
2860;SDS011;1438;50.922;6.704;2023-02-08T15:16:20;6.90;;;4.10;;
2860;SDS011;1438;50.922;6.704;2023-02-08T15:18:47;4.73;;;3.53;;
2860;SDS011;1438;50.922;6.704;2023-02-08T15:21:15;5.90;;;3.97;;
2860;SDS011;1438;50.922;6.704;2023-02-08T15:23:42;4.20;;;3.57;;
2860;SDS011;1438;50.922;6.704;2023-02-08T15:26:22;9.82;;;4.30;;
2860;SDS011;1438;50.922;6.704;2023-02-08T15:28:48;4.13;;;3.60;;
2860;SDS011;1438;50.922;6.704;2023-02-08T15:31:18;7.40;;;3.80;;
2860;SDS011;1438;50.922;6.704;2023-02-08T15:33:45;7.10;;;4.35;;
2860;SDS011;1438;50.922;6.704;2023-02-08T15:36:25;7.15;;;4.13;;
2860;SDS011;1438;50.922;6.704;2023-02-08T15:38:53;6.72;;;4.53;;
2860;SDS011;1438;50.922;6.704;2023-02-08T15:41:24;6.22;;;4.28;;
2860;SDS011;1438;50.922;6.704;2023-02-08T15:43:50;5.50;;;3.90;;
2860;SDS011;1438;50.922;6.704;2023-02-08T15:46:25;6.07;;;4.13;;
2860;SDS011;1438;50.922;6.704;2023-02-08T15:48:52;6.00;;;3.63;;
2860;SDS011;1438;50.922;6.704;2023-02-08T15:51:18;6.32;;;3.47;;
2860;SDS011;1438;50.922;6.704;2023-02-08T15:53:47;5.40;;;3.63;;
2860;SDS011;1438;50.922;6.704;2023-02-08T15:56:15;4.70;;;3.30;;
2860;SDS011;1438;50.922;6.704;2023-02-08T15:58:47;8.60;;;4.32;;
2860;SDS011;1438;50.922;6.704;2023-02-08T16:01:16;6.78;;;3.30;;
2860;SDS011;1438;50.922;6.704;2023-02-08T16:03:47;6.80;;;4.35;;
2860;SDS011;1438;50.922;6.704;2023-02-08T16:06:18;7.50;;;4.28;;
2860;SDS011;1438;50.922;6.704;2023-02-08T16:08:48;3.45;;;3.13;;
2860;SDS011;1438;50.922;6.704;2023-02-08T16:11:19;8.05;;;4.80;;
2860;SDS011;1438;50.922;6.704;2023-02-08T16:13:46;7.55;;;4.15;;
2860;SDS011;1438;50.922;6.704;2023-02-08T16:19:28;11.25;;;5.40;;
2860;SDS011;1438;50.922;6.704;2023-02-08T16:21:56;8.13;;;5.07;;
2860;SDS011;1438;50.922;6.704;2023-02-08T16:24:23;7.75;;;5.22;;
2860;SDS011;1438;50.922;6.704;2023-02-08T16:26:53;6.25;;;4.22;;
2860;SDS011;1438;50.922;6.704;2023-02-08T16:32:00;11.70;;;7.75;;
2860;SDS011;1438;50.922;6.704;2023-02-08T16:34:27;11.52;;;5.50;;
2860;SDS011;1438;50.922;6.704;2023-02-08T16:36:54;10.40;;;6.25;;
2860;SDS011;1438;50.922;6.704;2023-02-08T16:39:21;18.05;;;10.70;;
2860;SDS011;1438;50.922;6.704;2023-02-08T16:44:35;10.25;;;6.43;;
2860;SDS011;1438;50.922;6.704;2023-02-08T16:47:23;7.40;;;5.18;;
2860;SDS011;1438;50.922;6.704;2023-02-08T16:49:48;9.55;;;5.90;;
2860;SDS011;1438;50.922;6.704;2023-02-08T16:52:14;7.50;;;5.70;;
2860;SDS011;1438;50.922;6.704;2023-02-08T16:54:40;10.00;;;5.95;;
2860;SDS011;1438;50.922;6.704;2023-02-08T16:57:06;7.35;;;5.10;;
2860;SDS011;1438;50.922;6.704;2023-02-08T16:59:33;7.30;;;5.40;;
2860;SDS011;1438;50.922;6.704;2023-02-08T17:01:59;8.77;;;5.50;;
2860;SDS011;1438;50.922;6.704;2023-02-08T17:04:25;8.40;;;5.20;;
2860;SDS011;1438;50.922;6.704;2023-02-08T17:06:51;6.43;;;5.07;;
2860;SDS011;1438;50.922;6.704;2023-02-08T17:09:17;7.88;;;5.68;;
2860;SDS011;1438;50.922;6.704;2023-02-08T17:11:43;9.18;;;5.07;;
2860;SDS011;1438;50.922;6.704;2023-02-08T17:14:09;10.07;;;4.70;;
2860;SDS011;1438;50.922;6.704;2023-02-08T17:16:36;6.65;;;4.50;;